Time;durP1;ratioP1;P1;durP2;ratioP2;P2;SDS_P1;SDS_P2;PMS_P1;PMS_P2;Temp;Humidity;BMP_temperature;BMP_pressure;BME280_temperature;BME280_humidity;BME280_pressure;Samples;Min_cycle;Max_cycle;Signal;HPM_P1;HPM_P2
2023/10/26 00:02:07;;;;;;;0.50;0.50;;;;;;;14.23;100.00;98407.22;5111746;28;20027;-59
2023/10/26 00:04:32;;;;;;;0.60;0.60;;;;;;;14.18;100.00;98404.03;5107429;28;20046;-59
2023/10/26 00:06:58;;;;;;;0.50;0.50;;;;;;;14.17;100.00;98402.31;5103092;28;20024;-59
2023/10/26 00:09:24;;;;;;;0.50;0.50;;;;;;;14.15;100.00;98402.44;5110860;28;20026;-58
2023/10/26 00:11:52;;;;;;;0.50;0.50;;;;;;;14.13;100.00;98395.50;5107309;28;20071;-59
2023/10/26 00:14:17;;;;;;;0.50;0.50;;;;;;;14.05;100.00;98387.19;5057465;28;20044;-57
2023/10/26 00:16:43;;;;;;;0.50;0.50;;;;;;;14.06;100.00;98395.09;5068786;28;20055;-58
2023/10/26 00:19:08;;;;;;;0.55;0.55;;;;;;;14.07;100.00;98395.91;5071952;28;20036;-58
2023/10/26 00:21:34;;;;;;;0.50;0.50;;;;;;;14.07;100.00;98396.78;5070888;28;20039;-58
2023/10/26 00:23:59;;;;;;;0.50;0.50;;;;;;;14.05;100.00;98388.00;5082658;28;20067;-58
2023/10/26 00:26:24;;;;;;;0.43;0.43;;;;;;;14.05;100.00;98389.84;5084596;28;20464;-57
2023/10/26 00:28:50;;;;;;;0.40;0.40;;;;;;;14.06;100.00;98383.53;5079956;28;20032;-58
2023/10/26 00:31:15;;;;;;;0.50;0.50;;;;;;;14.06;100.00;98389.75;5091193;28;20024;-58
2023/10/26 00:33:40;;;;;;;0.50;0.50;;;;;;;14.04;100.00;98380.97;5091025;28;20020;-59
2023/10/26 00:36:06;;;;;;;0.50;0.50;;;;;;;14.03;100.00;98389.09;5077941;28;20025;-59
2023/10/26 00:38:32;;;;;;;0.50;0.50;;;;;;;13.97;100.00;98386.88;5071043;28;20028;-59
2023/10/26 00:40:57;;;;;;;0.50;0.50;;;;;;;13.92;100.00;98391.69;5073825;28;20039;-60
2023/10/26 00:43:26;;;;;;;0.50;0.50;;;;;;;13.92;100.00;98383.69;5072105;28;20050;-59
2023/10/26 00:45:53;;;;;;;0.50;0.50;;;;;;;13.88;100.00;98379.50;5081960;28;20140;-58
2023/10/26 00:48:19;;;;;;;0.50;0.50;;;;;;;13.79;100.00;98382.84;5071036;28;20035;-58
2023/10/26 00:50:46;;;;;;;0.50;0.50;;;;;;;13.73;100.00;98386.81;5052769;28;20038;-58
2023/10/26 00:53:14;;;;;;;0.50;0.50;;;;;;;13.71;100.00;98393.22;5080579;28;20040;-58
2023/10/26 00:55:40;;;;;;;0.50;0.50;;;;;;;13.69;100.00;98393.31;5087257;28;20039;-58
2023/10/26 00:58:07;;;;;;;0.50;0.50;;;;;;;13.65;100.00;98396.31;5090285;28;20703;-58
2023/10/26 01:00:38;;;;;;;0.52;0.52;;;;;;;13.61;100.00;98394.81;5089221;28;20028;-61
2023/10/26 01:03:04;;;;;;;0.50;0.50;;;;;;;13.57;100.00;98388.00;5087068;28;20103;-60
2023/10/26 01:05:30;;;;;;;0.50;0.50;;;;;;;13.53;100.00;98389.16;5090416;28;20028;-61
2023/10/26 01:07:55;;;;;;;0.60;0.60;;;;;;;13.47;100.00;98387.81;5077669;28;20028;-61
2023/10/26 01:10:21;;;;;;;0.50;0.50;;;;;;;13.53;100.00;98383.81;5070950;28;20028;-60
2023/10/26 01:12:47;;;;;;;0.50;0.50;;;;;;;13.52;100.00;98383.00;5072245;28;20036;-61
2023/10/26 01:15:12;;;;;;;0.50;0.50;;;;;;;13.50;100.00;98381.38;5090384;28;20123;-61
2023/10/26 01:17:38;;;;;;;0.50;0.50;;;;;;;13.47;100.00;98379.78;5092877;28;20035;-61
2023/10/26 01:20:05;;;;;;;0.50;0.50;;;;;;;13.43;100.00;98385.44;5101683;28;20036;-60
2023/10/26 01:22:32;;;;;;;0.60;0.60;;;;;;;13.43;100.00;98388.09;5106979;28;20102;-61
2023/10/26 01:24:58;;;;;;;0.50;0.50;;;;;;;13.41;100.00;98384.69;5110214;28;20026;-61
2023/10/26 01:27:23;;;;;;;0.50;0.50;;;;;;;13.42;100.00;98381.06;5102138;28;20669;-61
2023/10/26 01:29:49;;;;;;;0.50;0.50;;;;;;;13.47;100.00;98390.47;5092388;28;20166;-61
2023/10/26 01:32:14;;;;;;;0.50;0.50;;;;;;;13.44;100.00;98389.81;5092851;28;20037;-61
2023/10/26 01:34:40;;;;;;;0.50;0.50;;;;;;;13.36;100.00;98386.84;5094002;28;20577;-61
2023/10/26 01:37:06;;;;;;;0.50;0.50;;;;;;;13.27;100.00;98382.97;5100467;28;20036;-61
2023/10/26 01:39:32;;;;;;;0.50;0.50;;;;;;;13.32;100.00;98390.66;5092152;28;20085;-61
2023/10/26 01:41:58;;;;;;;0.50;0.50;;;;;;;13.31;100.00;98388.97;5090077;28;20028;-61
2023/10/26 01:44:23;;;;;;;0.50;0.50;;;;;;;13.29;100.00;98385.53;5090122;28;20530;-61
2023/10/26 01:46:48;;;;;;;0.50;0.50;;;;;;;13.24;100.00;98384.03;5089942;28;20028;-61
2023/10/26 01:49:14;;;;;;;0.50;0.50;;;;;;;13.26;100.00;98383.97;5092931;28;20028;-61
2023/10/26 01:51:39;;;;;;;0.50;0.50;;;;;;;13.24;100.00;98375.19;5089689;28;20051;-61
2023/10/26 01:54:05;;;;;;;0.60;0.60;;;;;;;13.23;100.00;98369.97;5104489;28;20489;-61
2023/10/26 01:56:30;;;;;;;0.52;0.52;;;;;;;13.20;100.00;98371.88;5108556;28;20059;-61
2023/10/26 01:58:57;;;;;;;0.60;0.60;;;;;;;13.21;100.00;98367.41;5103780;28;20027;-61
2023/10/26 02:01:24;;;;;;;0.50;0.50;;;;;;;13.16;100.00;98367.69;5108618;28;20463;-61
2023/10/26 02:03:49;;;;;;;0.60;0.60;;;;;;;13.15;100.00;98379.34;5107593;28;20502;-61
2023/10/26 02:06:15;;;;;;;0.60;0.60;;;;;;;13.15;100.00;98374.00;5106454;28;20069;-60
2023/10/26 02:08:40;;;;;;;0.50;0.50;;;;;;;13.10;100.00;98372.59;5107881;28;20041;-62
2023/10/26 02:11:06;;;;;;;0.50;0.50;;;;;;;13.06;100.00;98368.44;5108883;28;20057;-60
2023/10/26 02:13:31;;;;;;;0.50;0.50;;;;;;;13.07;100.00;98371.00;5094877;28;20074;-60
2023/10/26 02:15:57;;;;;;;0.60;0.60;;;;;;;13.04;100.00;98371.22;5088769;28;20024;-58
2023/10/26 02:18:23;;;;;;;0.50;0.50;;;;;;;13.02;100.00;98378.47;5088793;28;20040;-58
2023/10/26 02:20:48;;;;;;;0.57;0.57;;;;;;;13.00;100.00;98366.16;5108494;28;20189;-59
2023/10/26 02:23:14;;;;;;;0.50;0.50;;;;;;;13.01;100.00;98375.91;5101283;28;20150;-59
2023/10/26 02:25:39;;;;;;;0.50;0.50;;;;;;;13.02;100.00;98377.63;5108959;28;20127;-59
2023/10/26 02:28:05;;;;;;;0.60;0.60;;;;;;;13.01;100.00;98371.41;5093494;28;20027;-59
2023/10/26 02:30:30;;;;;;;0.50;0.50;;;;;;;13.01;100.00;98366.06;5089259;28;20376;-58
2023/10/26 02:32:56;;;;;;;0.50;0.50;;;;;;;13.03;100.00;98374.00;5091272;28;20020;-59
2023/10/26 02:35:21;;;;;;;0.60;0.60;;;;;;;13.04;100.00;98363.22;5097821;28;20471;-58
2023/10/26 02:37:47;;;;;;;0.50;0.50;;;;;;;13.06;100.00;98368.44;5109321;28;20036;-58
2023/10/26 02:40:13;;;;;;;0.50;0.50;;;;;;;13.02;100.00;98350.94;5108975;28;20031;-59
2023/10/26 02:42:41;;;;;;;0.50;0.50;;;;;;;13.10;100.00;98354.78;5100643;28;20035;-58
2023/10/26 02:45:08;;;;;;;0.60;0.60;;;;;;;13.09;100.00;98362.91;5088944;28;20081;-58
2023/10/26 02:47:34;;;;;;;0.50;0.50;;;;;;;13.07;100.00;98365.69;5090529;28;20020;-58
2023/10/26 02:49:59;;;;;;;0.50;0.50;;;;;;;13.06;100.00;98363.94;5089168;28;20035;-59
2023/10/26 02:52:25;;;;;;;0.50;0.50;;;;;;;13.02;100.00;98354.47;5092866;28;20024;-58
2023/10/26 02:54:50;;;;;;;0.60;0.60;;;;;;;13.03;100.00;98358.81;5104654;28;20460;-58
2023/10/26 02:57:15;;;;;;;0.50;0.50;;;;;;;12.98;100.00;98358.25;5087971;28;20032;-59
2023/10/26 02:59:41;;;;;;;0.60;0.60;;;;;;;12.95;100.00;98361.13;5092656;28;20012;-59
2023/10/26 03:02:07;;;;;;;0.60;0.60;;;;;;;12.92;100.00;98353.34;5086087;28;20115;-59
2023/10/26 03:04:34;;;;;;;0.52;0.52;;;;;;;12.87;100.00;98342.13;5096230;28;20536;-58
2023/10/26 03:07:00;;;;;;;0.50;0.50;;;;;;;12.82;100.00;98354.94;5106897;28;20080;-59
2023/10/26 03:09:26;;;;;;;0.57;0.57;;;;;;;12.80;100.00;98356.84;5099391;28;20069;-58
2023/10/26 03:11:51;;;;;;;0.60;0.60;;;;;;;12.75;100.00;98348.28;5088035;28;20421;-58
2023/10/26 03:14:18;;;;;;;0.50;0.50;;;;;;;12.77;100.00;98346.38;5088574;28;20044;-58
2023/10/26 03:16:44;;;;;;;0.60;0.60;;;;;;;12.76;100.00;98349.16;5092105;28;20523;-59
2023/10/26 03:19:09;;;;;;;0.60;0.60;;;;;;;12.73;100.00;98344.91;5092853;28;20111;-59
2023/10/26 03:21:35;;;;;;;0.50;0.50;;;;;;;12.73;100.00;98336.88;5088780;28;20024;-58
2023/10/26 03:24:00;;;;;;;0.50;0.50;;;;;;;12.76;100.00;98344.69;5098782;28;20036;-61
2023/10/26 03:26:26;;;;;;;0.50;0.50;;;;;;;12.73;100.00;98339.56;5088634;28;20093;-60
2023/10/26 03:28:52;;;;;;;0.50;0.50;;;;;;;12.69;100.00;98351.38;5088769;28;20024;-60
2023/10/26 03:31:18;;;;;;;0.50;0.50;;;;;;;12.65;100.00;98349.88;5088449;28;20039;-60
2023/10/26 03:33:43;;;;;;;0.50;0.50;;;;;;;12.62;100.00;98339.41;5093846;28;20032;-60
2023/10/26 03:36:20;;;;;;;0.60;0.60;;;;;;;12.59;100.00;98338.75;5108901;28;20126;-60
2023/10/26 03:38:46;;;;;;;0.60;0.60;;;;;;;12.57;100.00;98344.19;5108679;28;20567;-61
2023/10/26 03:41:12;;;;;;;0.60;0.60;;;;;;;12.57;100.00;98335.38;5108932;28;20092;-61
2023/10/26 03:43:38;;;;;;;0.50;0.50;;;;;;;12.60;100.00;98332.47;5096043;28;20590;-61
2023/10/26 03:46:07;;;;;;;0.50;0.50;;;;;;;12.60;100.00;98337.81;5087930;28;20024;-60
2023/10/26 03:48:34;;;;;;;0.60;0.60;;;;;;;12.57;100.00;98338.03;5088311;28;20068;-61
2023/10/26 03:51:00;;;;;;;0.50;0.50;;;;;;;12.52;100.00;98327.66;5088430;28;20024;-61
2023/10/26 03:53:26;;;;;;;0.60;0.60;;;;;;;12.55;100.00;98334.59;5108223;28;20467;-61
2023/10/26 03:55:51;;;;;;;0.50;0.50;;;;;;;12.56;100.00;98325.63;5105705;28;20036;-61
2023/10/26 03:58:17;;;;;;;0.50;0.50;;;;;;;12.55;100.00;98323.94;5110560;28;20030;-61
2023/10/26 04:00:43;;;;;;;0.50;0.50;;;;;;;12.50;100.00;98321.59;5105704;28;20024;-61
2023/10/26 04:03:08;;;;;;;0.50;0.50;;;;;;;12.53;100.00;98326.72;5091163;28;20024;-61
2023/10/26 04:05:34;;;;;;;0.60;0.60;;;;;;;12.49;100.00;98335.84;5111757;28;20032;-61
2023/10/26 04:08:02;;;;;;;0.50;0.50;;;;;;;12.44;100.00;98332.66;5111947;28;20024;-60
2023/10/26 04:10:28;;;;;;;0.60;0.60;;;;;;;12.38;100.00;98332.19;5094650;28;20028;-61
2023/10/26 04:12:54;;;;;;;0.60;0.60;;;;;;;12.28;100.00;98334.63;5091521;28;20078;-60
2023/10/26 04:15:19;;;;;;;0.50;0.50;;;;;;;12.25;100.00;98318.84;5073851;28;20027;-60
2023/10/26 04:17:44;;;;;;;0.60;0.60;;;;;;;12.25;100.00;98326.84;5097926;28;21022;-61
2023/10/26 04:20:10;;;;;;;0.50;0.50;;;;;;;12.23;100.00;98323.41;5106061;28;20028;-60
2023/10/26 04:22:36;;;;;;;0.50;0.50;;;;;;;12.27;100.00;98316.94;5111848;28;20046;-60
2023/10/26 04:25:02;;;;;;;0.60;0.60;;;;;;;12.34;100.00;98317.38;5112056;28;20397;-61
2023/10/26 04:27:27;;;;;;;0.50;0.50;;;;;;;12.32;100.00;98309.44;5106913;28;20046;-60
2023/10/26 04:29:53;;;;;;;0.50;0.50;;;;;;;12.44;100.00;98316.63;5091664;28;20052;-61
2023/10/26 04:32:18;;;;;;;0.50;0.50;;;;;;;12.49;100.00;98314.53;5105296;28;20019;-61
2023/10/26 04:34:44;;;;;;;0.60;0.60;;;;;;;12.53;100.00;98320.50;5110556;28;20031;-61
2023/10/26 04:37:12;;;;;;;0.50;0.50;;;;;;;12.57;100.00;98322.84;5093856;28;20387;-60
2023/10/26 04:39:41;;;;;;;0.60;0.60;;;;;;;12.61;100.00;98323.50;5090930;28;20240;-61
2023/10/26 04:42:06;;;;;;;0.55;0.55;;;;;;;12.66;100.00;98321.38;5090436;28;20031;-61
2023/10/26 04:44:32;;;;;;;0.60;0.60;;;;;;;12.72;100.00;98316.50;5093073;28;20798;-61
2023/10/26 04:46:57;;;;;;;0.60;0.60;;;;;;;12.74;100.00;98316.38;5094423;28;20023;-61
2023/10/26 04:49:23;;;;;;;0.60;0.60;;;;;;;12.76;100.00;98317.13;5097557;28;20680;-61
2023/10/26 04:51:48;;;;;;;0.50;0.50;;;;;;;12.78;100.00;98315.22;5110258;28;20343;-61
2023/10/26 04:54:14;;;;;;;0.50;0.50;;;;;;;12.81;100.00;98321.22;5110258;28;20371;-61
2023/10/26 04:56:39;;;;;;;0.60;0.60;;;;;;;12.82;100.00;98312.22;5105048;28;20024;-61
2023/10/26 04:59:05;;;;;;;0.52;0.52;;;;;;;12.88;100.00;98317.13;5096174;28;20036;-61
2023/10/26 05:01:30;;;;;;;0.60;0.60;;;;;;;12.87;100.00;98315.44;5092105;28;20051;-61
2023/10/26 05:03:55;;;;;;;0.60;0.60;;;;;;;12.85;100.00;98306.69;5095851;28;20027;-61
2023/10/26 05:06:21;;;;;;;0.60;0.60;;;;;;;12.84;100.00;98291.66;5108028;28;20367;-61
2023/10/26 05:08:46;;;;;;;0.50;0.50;;;;;;;12.85;100.00;98289.84;5109793;28;20039;-61
2023/10/26 05:11:12;;;;;;;0.50;0.50;;;;;;;12.87;100.00;98288.75;5095964;28;20034;-61
2023/10/26 05:13:38;;;;;;;0.50;0.50;;;;;;;12.89;100.00;98292.19;5092603;28;20048;-61
2023/10/26 05:16:04;;;;;;;0.50;0.50;;;;;;;12.94;100.00;98298.06;5091902;28;20047;-61
2023/10/26 05:18:29;;;;;;;0.60;0.60;;;;;;;12.96;100.00;98293.44;5092667;28;20038;-61
2023/10/26 05:20:55;;;;;;;0.60;0.60;;;;;;;12.97;100.00;98287.16;5092894;28;20077;-61
2023/10/26 05:23:21;;;;;;;0.47;0.47;;;;;;;13.01;100.00;98285.19;5110865;28;20417;-60
2023/10/26 05:25:48;;;;;;;0.50;0.50;;;;;;;13.04;100.00;98290.28;5110276;28;20114;-61
2023/10/26 05:28:13;;;;;;;0.55;0.55;;;;;;;13.06;100.00;98291.88;5103914;28;20039;-61
2023/10/26 05:30:39;;;;;;;0.50;0.50;;;;;;;13.05;100.00;98276.84;5090486;28;20411;-60
2023/10/26 05:33:04;;;;;;;0.50;0.50;;;;;;;13.06;100.00;98273.19;5090362;28;20022;-60
2023/10/26 05:35:30;;;;;;;0.50;0.50;;;;;;;13.09;100.00;98267.66;5105850;28;20115;-60
2023/10/26 05:37:55;;;;;;;0.50;0.50;;;;;;;13.09;100.00;98262.31;5095249;28;20028;-61
2023/10/26 05:40:20;;;;;;;0.50;0.50;;;;;;;13.12;100.00;98254.09;5071062;28;20123;-61
2023/10/26 05:42:46;;;;;;;0.60;0.60;;;;;;;13.12;100.00;98259.44;5091207;28;20035;-61
2023/10/26 05:45:11;;;;;;;0.50;0.50;;;;;;;13.12;100.00;98259.44;5101610;28;20035;-58
2023/10/26 05:47:36;;;;;;;0.60;0.60;;;;;;;13.15;100.00;98251.19;5096497;28;20016;-58
2023/10/26 05:50:04;;;;;;;0.50;0.50;;;;;;;13.12;100.00;98248.75;5101029;28;20035;-58
2023/10/26 05:52:30;;;;;;;0.50;0.50;;;;;;;13.13;100.00;98247.78;5097395;28;20077;-58
2023/10/26 05:54:55;;;;;;;0.50;0.50;;;;;;;13.12;100.00;98251.44;5109632;28;20031;-58
2023/10/26 05:57:20;;;;;;;0.50;0.50;;;;;;;13.10;100.00;98250.69;5109171;28;20030;-58
2023/10/26 05:59:46;;;;;;;0.50;0.50;;;;;;;13.11;100.00;98249.69;5109673;28;20027;-58
2023/10/26 06:02:11;;;;;;;0.60;0.60;;;;;;;13.12;100.00;98246.09;5105621;28;20023;-58
2023/10/26 06:04:37;;;;;;;0.50;0.50;;;;;;;13.13;100.00;98244.25;5104017;28;20051;-58
2023/10/26 06:07:03;;;;;;;0.50;0.50;;;;;;;13.17;100.00;98233.28;5102443;28;20023;-58
2023/10/26 06:09:28;;;;;;;0.50;0.50;;;;;;;13.23;100.00;98236.47;5093499;28;20032;-58
2023/10/26 06:11:54;;;;;;;0.50;0.50;;;;;;;13.26;100.00;98237.09;5094285;28;20054;-58
2023/10/26 06:14:19;;;;;;;0.50;0.50;;;;;;;13.30;100.00;98235.03;5099510;28;20504;-58
2023/10/26 06:16:45;;;;;;;0.50;0.50;;;;;;;13.32;100.00;98241.13;5100796;28;20035;-58
2023/10/26 06:19:11;;;;;;;0.60;0.60;;;;;;;13.34;100.00;98240.06;5097488;28;20031;-58
2023/10/26 06:21:38;;;;;;;0.60;0.60;;;;;;;13.37;100.00;98244.31;5103340;28;20488;-58
2023/10/26 06:24:05;;;;;;;0.50;0.50;;;;;;;13.40;100.00;98246.78;5107037;28;20035;-58
2023/10/26 06:26:30;;;;;;;0.52;0.52;;;;;;;13.44;100.00;98241.13;5096638;28;20092;-58
2023/10/26 06:28:56;;;;;;;0.50;0.50;;;;;;;13.47;100.00;98253.38;5092869;28;20100;-58
2023/10/26 06:31:21;;;;;;;0.52;0.52;;;;;;;13.51;100.00;98252.22;5092954;28;20118;-58
2023/10/26 06:33:47;;;;;;;0.50;0.50;;;;;;;13.54;100.00;98260.84;5098513;28;20039;-58
2023/10/26 06:36:12;;;;;;;0.50;0.50;;;;;;;13.59;100.00;98252.50;5089015;28;20023;-59
2023/10/26 06:38:39;;;;;;;0.50;0.50;;;;;;;13.62;100.00;98258.47;5097354;28;20043;-59
2023/10/26 06:41:07;;;;;;;0.55;0.55;;;;;;;13.66;100.00;98256.41;5089924;28;20034;-58
2023/10/26 06:43:33;;;;;;;0.60;0.60;;;;;;;13.68;100.00;98247.34;5094490;28;20024;-59
2023/10/26 06:46:00;;;;;;;0.50;0.50;;;;;;;13.76;100.00;98252.13;5093731;28;20051;-58
2023/10/26 06:48:25;;;;;;;0.50;0.50;;;;;;;13.80;100.00;98249.13;5091710;28;20022;-58
2023/10/26 06:50:57;;;;;;;0.50;0.50;;;;;;;13.84;100.00;98242.56;5097270;28;20032;-58
2023/10/26 06:53:24;;;;;;;0.60;0.60;;;;;;;13.83;100.00;98232.00;5099128;28;20031;-58
2023/10/26 06:55:50;;;;;;;0.50;0.50;;;;;;;13.91;100.00;98242.97;5105794;28;20484;-56
2023/10/26 06:58:16;;;;;;;0.50;0.50;;;;;;;13.93;100.00;98235.69;5096859;28;20028;-57
2023/10/26 07:00:41;;;;;;;0.50;0.50;;;;;;;13.97;100.00;98239.84;5103485;28;20069;-57
2023/10/26 07:03:07;;;;;;;0.50;0.50;;;;;;;14.00;100.00;98234.28;5094565;28;20070;-57
2023/10/26 07:05:34;;;;;;;0.50;0.50;;;;;;;14.06;100.00;98228.47;5103930;28;20024;-57
2023/10/26 07:07:59;;;;;;;0.50;0.50;;;;;;;14.12;100.00;98223.50;5073632;28;20589;-57
2023/10/26 07:10:26;;;;;;;0.50;0.50;;;;;;;14.15;100.00;98227.78;5107924;28;20106;-57
2023/10/26 07:12:51;;;;;;;0.50;0.50;;;;;;;14.15;100.00;98225.13;5108129;28;20028;-57
2023/10/26 07:15:17;;;;;;;0.50;0.50;;;;;;;14.15;100.00;98227.78;5099888;28;20360;-57
2023/10/26 07:17:42;;;;;;;0.45;0.45;;;;;;;14.10;100.00;98208.56;5100055;28;20035;-57
2023/10/26 07:20:08;;;;;;;0.50;0.50;;;;;;;14.17;100.00;98223.16;5106931;28;20028;-57
2023/10/26 07:22:34;;;;;;;0.50;0.50;;;;;;;14.21;100.00;98221.97;5104372;28;20434;-57
2023/10/26 07:25:01;;;;;;;0.45;0.45;;;;;;;14.22;100.00;98215.63;5107169;28;20031;-57
2023/10/26 07:27:27;;;;;;;0.50;0.50;;;;;;;14.19;100.00;98215.88;5112092;28;20031;-57
2023/10/26 07:29:52;;;;;;;0.50;0.50;;;;;;;14.23;100.00;98217.38;5112424;28;20046;-57
2023/10/26 07:32:18;;;;;;;0.50;0.50;;;;;;;14.24;100.00;98216.38;5108421;28;20114;-57
2023/10/26 07:34:43;;;;;;;0.50;0.50;;;;;;;14.21;100.00;98212.13;5108544;28;20476;-58
2023/10/26 07:37:09;;;;;;;0.50;0.50;;;;;;;14.18;100.00;98212.34;5091650;28;20024;-58
2023/10/26 07:39:35;;;;;;;0.50;0.50;;;;;;;14.24;100.00;98216.38;5103251;28;20088;-57
2023/10/26 07:42:01;;;;;;;0.50;0.50;;;;;;;14.30;100.00;98215.94;5105587;28;20486;-57
2023/10/26 07:44:26;;;;;;;0.50;0.50;;;;;;;14.36;100.00;98216.31;5102844;28;20050;-57
2023/10/26 07:46:52;;;;;;;0.50;0.50;;;;;;;14.41;100.00;98213.31;5101612;28;20456;-57
2023/10/26 07:49:18;;;;;;;0.50;0.50;;;;;;;14.45;100.00;98215.63;5098112;28;20039;-57
2023/10/26 07:51:43;;;;;;;0.50;0.50;;;;;;;14.49;100.00;98211.75;5104956;28;20027;-58
2023/10/26 07:54:09;;;;;;;0.47;0.47;;;;;;;14.56;100.00;98217.50;5104617;28;20106;-57
2023/10/26 07:56:36;;;;;;;0.43;0.43;;;;;;;14.59;100.00;98201.19;5104535;28;20085;-57
2023/10/26 07:59:01;;;;;;;0.50;0.50;;;;;;;14.57;100.00;98197.78;5095579;28;20097;-57
2023/10/26 08:01:27;;;;;;;0.50;0.50;;;;;;;14.47;100.00;98188.75;5102904;28;20031;-57
2023/10/26 08:03:52;;;;;;;0.50;0.50;;;;;;;14.46;100.00;98211.97;5107358;28;20071;-57
2023/10/26 08:06:18;;;;;;;0.50;0.50;;;;;;;14.41;100.00;98210.66;5094380;28;20185;-57
2023/10/26 08:08:43;;;;;;;0.50;0.50;;;;;;;14.41;100.00;98187.41;5105581;28;20088;-57
2023/10/26 08:11:10;;;;;;;0.50;0.50;;;;;;;14.41;100.00;98181.22;5110963;28;20432;-57
2023/10/26 08:13:36;;;;;;;0.50;0.50;;;;;;;14.41;100.00;98190.06;5109161;28;20055;-56
2023/10/26 08:16:01;;;;;;;0.50;0.50;;;;;;;14.41;100.00;98199.94;5110290;28;20024;-57
2023/10/26 08:18:26;;;;;;;0.50;0.50;;;;;;;14.43;100.00;98196.16;5103103;28;20387;-57
2023/10/26 08:20:52;;;;;;;0.50;0.50;;;;;;;14.38;100.00;98210.88;5102356;28;20038;-59
2023/10/26 08:23:19;;;;;;;0.50;0.50;;;;;;;14.39;100.00;98183.16;5110317;28;20032;-57
2023/10/26 08:25:44;;;;;;;0.50;0.50;;;;;;;14.43;100.00;98190.00;5103828;28;20115;-57
2023/10/26 08:28:10;;;;;;;0.50;0.50;;;;;;;14.47;100.00;98191.44;5091105;28;20110;-57
2023/10/26 08:30:37;;;;;;;0.43;0.43;;;;;;;14.43;100.00;98206.88;5090712;28;20093;-57
2023/10/26 08:33:04;;;;;;;0.50;0.50;;;;;;;14.43;100.00;98208.72;5092399;27;20027;-57
2023/10/26 08:35:30;;;;;;;0.50;0.50;;;;;;;14.45;100.00;98220.13;5099244;27;20085;-57
2023/10/26 08:37:55;;;;;;;0.50;0.50;;;;;;;14.45;100.00;98230.81;5110412;28;20023;-57
2023/10/26 08:40:21;;;;;;;0.40;0.40;;;;;;;14.41;100.00;98226.69;5111115;28;20109;-57
2023/10/26 08:42:47;;;;;;;0.50;0.50;;;;;;;14.40;100.00;98222.28;5104154;28;20040;-57
2023/10/26 08:45:24;;;;;;;0.50;0.50;;;;;;;14.40;100.00;98222.28;5091299;28;20081;-57
2023/10/26 08:47:50;;;;;;;0.47;0.47;;;;;;;14.34;100.00;98222.78;5074798;28;20394;-57
2023/10/26 08:50:23;;;;;;;0.50;0.50;;;;;;;14.40;100.00;98220.47;5109482;28;20033;-57
2023/10/26 08:52:49;;;;;;;0.50;0.50;;;;;;;14.40;100.00;98239.22;5102906;28;20118;-57
2023/10/26 08:55:15;;;;;;;0.50;0.50;;;;;;;14.39;100.00;98244.69;5111395;28;20039;-57
2023/10/26 08:57:51;;;;;;;0.50;0.50;;;;;;;14.40;100.00;98231.19;5111593;28;20015;-57
2023/10/26 09:00:18;;;;;;;0.50;0.50;;;;;;;14.39;100.00;98242.00;5109633;28;20127;-57
2023/10/26 09:02:44;;;;;;;0.50;0.50;;;;;;;14.37;100.00;98241.25;5109093;28;20024;-57
2023/10/26 09:05:11;;;;;;;0.50;0.50;;;;;;;14.43;100.00;98248.84;5111021;28;20020;-56
2023/10/26 09:07:37;;;;;;;0.40;0.40;;;;;;;14.50;100.00;98245.56;5100671;28;20490;-57
2023/10/26 09:10:03;;;;;;;0.50;0.50;;;;;;;14.55;100.00;98253.22;5093186;28;20424;-56
2023/10/26 09:12:28;;;;;;;0.40;0.40;;;;;;;14.58;100.00;98258.34;5090917;28;20120;-57
2023/10/26 09:15:06;;;;;;;0.50;0.50;;;;;;;14.60;100.00;98268.91;5092819;28;20181;-56
2023/10/26 09:17:33;;;;;;;0.40;0.40;;;;;;;14.60;100.00;98271.59;5097252;28;20116;-56
2023/10/26 09:20:23;;;;;;;0.40;0.40;;;;;;;14.52;100.00;98253.47;5105603;28;20039;-56
2023/10/26 09:22:48;;;;;;;0.50;0.50;;;;;;;14.61;100.00;98258.13;5095059;28;20038;-57
2023/10/26 09:25:14;;;;;;;0.40;0.40;;;;;;;14.68;100.00;98270.03;5108588;28;20040;-57
2023/10/26 09:27:48;;;;;;;0.50;0.50;;;;;;;14.66;100.00;98272.00;5104876;28;20023;-56
2023/10/26 09:30:28;;;;;;;0.50;0.50;;;;;;;14.69;100.00;98271.78;5110234;28;20051;-56
2023/10/26 09:32:53;;;;;;;0.40;0.40;;;;;;;14.72;100.00;98281.38;5109696;28;20111;-56
2023/10/26 09:35:29;;;;;;;0.40;0.40;;;;;;;14.76;100.00;98291.72;5103244;28;20387;-57
2023/10/26 09:37:55;;;;;;;0.40;0.40;;;;;;;14.77;100.00;98287.22;5089990;28;20047;-56
2023/10/26 09:40:21;;;;;;;0.40;0.40;;;;;;;14.76;100.00;98288.22;5098035;28;20020;-56
2023/10/26 09:42:48;;;;;;;0.50;0.50;;;;;;;14.75;100.00;98282.00;5092061;28;20097;-56
2023/10/26 09:45:14;;;;;;;0.40;0.40;;;;;;;14.77;100.00;98279.19;5090022;28;20023;-56
2023/10/26 09:47:40;;;;;;;0.40;0.40;;;;;;;14.80;100.00;98284.31;5092537;28;20031;-56
2023/10/26 09:50:06;;;;;;;0.50;0.50;;;;;;;14.74;100.00;98285.66;5090327;28;20486;-56
2023/10/26 09:52:32;;;;;;;0.50;0.50;;;;;;;14.76;100.00;98282.84;5091140;28;20038;-56
2023/10/26 09:54:57;;;;;;;0.50;0.50;;;;;;;14.75;100.00;98287.34;5109549;28;20063;-57
2023/10/26 09:57:33;;;;;;;0.50;0.50;;;;;;;14.77;100.00;98293.44;5111006;28;20026;-56
2023/10/26 09:59:59;;;;;;;0.50;0.50;;;;;;;14.78;100.00;98289.78;5096779;28;20031;-57
2023/10/26 10:02:25;;;;;;;0.50;0.50;;;;;;;14.74;100.00;98292.81;5102700;28;20074;-57
2023/10/26 10:04:50;;;;;;;0.50;0.50;;;;;;;14.73;100.00;98312.53;5106085;28;20444;-57
2023/10/26 10:07:43;;;;;;;0.40;0.40;;;;;;;14.78;100.00;98300.50;5089811;28;20637;-57
2023/10/26 10:10:11;;;;;;;0.50;0.50;;;;;;;14.83;100.00;98295.63;5106292;28;20117;-57
2023/10/26 10:12:38;;;;;;;0.50;0.50;;;;;;;14.82;100.00;98293.94;5109777;28;20045;-56
2023/10/26 10:15:06;;;;;;;0.43;0.43;;;;;;;14.78;100.00;98289.78;5098341;28;20038;-56
2023/10/26 10:17:45;;;;;;;0.40;0.40;;;;;;;14.80;100.00;98295.00;5100315;28;20052;-56
2023/10/26 10:20:13;;;;;;;0.52;0.52;;;;;;;14.84;100.00;98296.50;5102559;28;20032;-56
2023/10/26 10:22:48;;;;;;;0.50;0.50;;;;;;;14.83;100.00;98292.97;5092548;28;20035;-57
2023/10/26 10:25:16;;;;;;;0.50;0.50;;;;;;;14.88;100.00;98285.44;5109197;28;20088;-56
2023/10/26 10:28:02;;;;;;;0.50;0.50;;;;;;;14.97;100.00;98276.69;5108961;28;20023;-57
2023/10/26 10:30:31;;;;;;;0.50;0.50;;;;;;;15.03;100.00;98273.53;5077937;28;20039;-57
2023/10/26 10:32:57;;;;;;;0.50;0.50;;;;;;;15.07;100.00;98276.81;5089018;28;20387;-57
2023/10/26 10:35:54;;;;;;;0.50;0.50;;;;;;;15.16;100.00;98271.59;5092089;28;20028;-56
2023/10/26 10:38:20;;;;;;;0.40;0.40;;;;;;;15.30;100.00;98257.97;5033207;28;20044;-57
2023/10/26 10:40:55;;;;;;;0.40;0.40;;;;;;;15.48;100.00;98259.22;5091724;28;20403;-57
2023/10/26 10:43:34;;;;;;;0.40;0.40;;;;;;;15.57;100.00;98250.44;5088693;28;20051;-56
2023/10/26 10:46:11;;;;;;;0.43;0.43;;;;;;;15.63;100.00;98246.41;5095768;28;20042;-57
2023/10/26 10:48:57;;;;;;;0.40;0.40;;;;;;;15.82;100.00;98244.78;5089112;28;20047;-56
2023/10/26 10:51:37;;;;;;;0.40;0.40;;;;;;;16.01;100.00;98241.47;5088216;28;20039;-57
2023/10/26 10:54:05;;;;;;;0.40;0.40;;;;;;;16.34;100.00;98219.00;5104125;28;20015;-57
2023/10/26 10:56:44;;;;;;;0.40;0.40;;;;;;;16.57;100.00;98215.25;5090232;28;20040;-57
2023/10/26 10:59:26;;;;;;;0.40;0.40;;;;;;;16.95;100.00;98202.91;5089064;28;20505;-57
2023/10/26 11:02:10;;;;;;;0.40;0.40;;;;;;;17.16;100.00;98202.00;5093708;28;20027;-57
2023/10/26 11:04:55;;;;;;;0.40;0.40;;;;;;;17.23;100.00;98213.94;5095506;28;20452;-56
2023/10/26 11:07:28;;;;;;;0.40;0.40;;;;;;;17.27;100.00;98210.81;5112466;28;20027;-57
2023/10/26 11:09:57;;;;;;;0.40;0.40;;;;;;;17.43;100.00;98194.22;5113016;28;20023;-57
2023/10/26 11:12:23;;;;;;;0.40;0.40;;;;;;;17.51;100.00;98195.22;5096135;28;20047;-57
2023/10/26 11:14:49;;;;;;;0.40;0.40;;;;;;;17.55;100.00;98188.59;5109056;28;20408;-57
2023/10/26 11:17:22;;;;;;;0.30;0.30;;;;;;;18.06;100.00;98183.88;5111110;28;20035;-57
2023/10/26 11:19:49;;;;;;;0.40;0.40;;;;;;;18.63;100.00;98179.47;5107924;28;20031;-57
2023/10/26 11:22:15;;;;;;;0.40;0.40;;;;;;;18.96;100.00;98169.03;5098986;28;20140;-57
2023/10/26 11:24:42;;;;;;;0.35;0.35;;;;;;;19.08;100.00;98164.31;5111246;28;20047;-57